Big Bear Station Historical Data
Daily Summary for December 7, 2017 Units:  Metric    English   Both
« Previous Day
Next Day »
Daily Weekly Monthly Yearly Custom
  High: Low: Average:
Temperature: 6.2 °C -2.7 °C 1.3 °C
Dew Point: -10.6 °C -19.6 °C -15.4 °C
Humidity: 35 % 19 % 28 %
Wind Speed: 15.9 km/h 0 km/h 3.5 km/h
Wind Gust: -1607.7 km/h - -
Wind:- - SW
Pressure: 1030.7 hPa 1027.3 hPa -
Precipitation: 0 mm    
Historical Graphs
 
 
Tabular Data for December 7, 2017
Time Temperature Dew Point Pressure Wind Wind Speed Wind Gust Humidity Rainfall Rate (Hourly)
00:04 -1.1 °C -16.5 °C 1027.7 hPa Calm   -1607.7 km/h 30 % 0 mm
00:20 -1.2 °C -16.2 °C 1027.7 hPa NNW 2.7 km/h -1607.7 km/h 31 % 0 mm
00:35 -1.2 °C -16.2 °C 1027.7 hPa West 2.7 km/h -1607.7 km/h 31 % 0 mm
00:50 -1 °C -16.8 °C 1027.7 hPa WSW 2.7 km/h -1607.7 km/h 29 % 0 mm
01:06 -1 °C -17.2 °C 1027.7 hPa Calm   -1607.7 km/h 28 % 0 mm
01:21 -0.8 °C -17.1 °C 1027.3 hPa Calm   -1607.7 km/h 28 % 0 mm
01:36 -1 °C -17.2 °C 1027.3 hPa Calm   -1607.7 km/h 28 % 0 mm
01:51 -1 °C -16.8 °C 1027.3 hPa Calm   -1607.7 km/h 29 % 0 mm
02:07 -1.1 °C -17.3 °C 1027.3 hPa SSW 2.7 km/h -1607.7 km/h 28 % 0 mm
02:22 -1.2 °C -17.4 °C 1027.3 hPa Calm   -1607.7 km/h 28 % 0 mm
02:37 -1.1 °C -17.3 °C 1027.3 hPa Calm   -1607.7 km/h 28 % 0 mm
02:52 -1.4 °C -17.2 °C 1027.3 hPa WSW 1.8 km/h -1607.7 km/h 29 % 0 mm
03:07 -1.4 °C -16.8 °C 1027.3 hPa Calm   -1607.7 km/h 30 % 0 mm
03:23 -1.5 °C -16.8 °C 1027.3 hPa Calm   -1607.7 km/h 30 % 0 mm
03:38 -1.4 °C -17.2 °C 1027.3 hPa Calm   -1607.7 km/h 29 % 0 mm
03:53 -1.6 °C -16.9 °C 1027.3 hPa ESE 3.5 km/h -1607.7 km/h 30 % 0 mm
04:08 -1.4 °C -16.8 °C 1027.7 hPa South 3.5 km/h -1607.7 km/h 30 % 0 mm
04:23 -1.4 °C -17.2 °C 1027.7 hPa ESE 1.8 km/h -1607.7 km/h 29 % 0 mm
05:09 -1.9 °C -17.6 °C 1027.7 hPa SE 1.8 km/h -1607.7 km/h 29 % 0 mm
05:24 -2.2 °C -17.9 °C 1027.7 hPa NW 2.7 km/h -1607.7 km/h 29 % 0 mm
05:39 -2.1 °C -17.4 °C 1027.7 hPa Calm   -1607.7 km/h 30 % 0 mm
05:55 -2.3 °C -17.6 °C 1028 hPa NE 3.5 km/h -1607.7 km/h 30 % 0 mm
06:10 -2.1 °C -18.2 °C 1028.3 hPa Calm   -1607.7 km/h 28 % 0 mm
06:25 -2.6 °C -18.2 °C 1028.7 hPa Calm   -1607.7 km/h 29 % 0 mm
06:40 -2.7 °C -17.9 °C 1028.7 hPa Calm   -1607.7 km/h 30 % 0 mm
06:56 -2.6 °C -17.4 °C 1028.7 hPa SE 3.5 km/h -1607.7 km/h 31 % 0 mm
07:11 -2.6 °C -17.4 °C 1029 hPa South 4.3 km/h -1607.7 km/h 31 % 0 mm
07:41 -1.5 °C -18.6 °C 1029 hPa SW 1.8 km/h -1607.7 km/h 26 % 0 mm
08:12 -0.4 °C -19.6 °C 1029.3 hPa WNW 2.7 km/h -1607.7 km/h 22 % 0 mm
08:27 0.5 °C -19.3 °C 1029.3 hPa Calm   -1607.7 km/h 21 % 0 mm
08:42 1 °C -18.9 °C 1029.7 hPa NNW 4.3 km/h -1607.7 km/h 21 % 0 mm
08:58 1.8 °C -19.4 °C 1029.7 hPa SW 7.6 km/h -1607.7 km/h 19 % 0 mm
09:13 2.5 °C -18.2 °C 1029.7 hPa NW 15.1 km/h -1607.7 km/h 20 % 0 mm
09:28 2.8 °C -18 °C 1029.7 hPa WNW 4.3 km/h -1607.7 km/h 20 % 0 mm
10:30 4.1 °C -16.9 °C 1029.7 hPa East 6 km/h -1607.7 km/h 20 % 0 mm
11:00 4.2 °C -16.8 °C 1029.3 hPa NW 12.6 km/h -1607.7 km/h 20 % 0 mm
11:16 4.6 °C -15.9 °C 1029.3 hPa NNW 9.3 km/h -1607.7 km/h 21 % 0 mm
11:31 4.8 °C -15.2 °C 1029.3 hPa South 2.7 km/h -1607.7 km/h 22 % 0 mm
11:46 5.3 °C -14.8 °C 1029 hPa NE 6 km/h -1607.7 km/h 22 % 0 mm
12:01 5.7 °C -14.9 °C 1029 hPa North 8.5 km/h -1607.7 km/h 21 % 0 mm
12:33 5.9 °C -14.2 °C 1028.7 hPa NW 8.5 km/h -1607.7 km/h 22 % 0 mm
12:48 6.2 °C -13.4 °C 1028.7 hPa North 6 km/h -1607.7 km/h 23 % 0 mm
13:03 5.9 °C -13.2 °C 1028.7 hPa NW 5.1 km/h -1607.7 km/h 24 % 0 mm
13:49 5.6 °C -13.4 °C 1028.3 hPa NW 7.6 km/h -1607.7 km/h 24 % 0 mm
14:20 5 °C -13.9 °C 1028.3 hPa WNW 1.8 km/h -1607.7 km/h 24 % 0 mm
14:51 4.6 °C -13.8 °C 1028.3 hPa West 15.9 km/h -1607.7 km/h 25 % 0 mm
15:07 4.4 °C -13.9 °C 1028.7 hPa ENE 4.3 km/h -1607.7 km/h 25 % 0 mm
15:38 4.2 °C -13.2 °C 1028.3 hPa East 1.8 km/h -1607.7 km/h 27 % 0 mm
15:53 3.9 °C -13.4 °C 1028.7 hPa NE 7.6 km/h -1607.7 km/h 27 % 0 mm
16:08 3.7 °C -13.1 °C 1028.7 hPa NE 1.8 km/h -1607.7 km/h 28 % 0 mm
16:24 3.6 °C -12.4 °C 1028.7 hPa SW 5.1 km/h -1607.7 km/h 30 % 0 mm
16:54 3.3 °C -11.9 °C 1029 hPa South 7.6 km/h -1607.7 km/h 32 % 0 mm
17:40 2.5 °C -12.9 °C 1029.7 hPa SW 7.6 km/h -1607.7 km/h 31 % 0 mm
17:55 2.4 °C -12.7 °C 1029.7 hPa West 4.3 km/h -1607.7 km/h 32 % 0 mm
18:11 2.8 °C -11.9 °C 1030 hPa SSW 2.7 km/h -1607.7 km/h 33 % 0 mm
18:41 3.2 °C -10.8 °C 1030.4 hPa East 1.8 km/h -1607.7 km/h 35 % 0 mm
18:56 3.5 °C -10.6 °C 1030.4 hPa ESE 6 km/h -1607.7 km/h 35 % 0 mm
19:27 3.1 °C -11.3 °C 1030.4 hPa North 4.3 km/h -1607.7 km/h 34 % 0 mm
19:42 2.9 °C -11.4 °C 1030.4 hPa North 4.3 km/h -1607.7 km/h 34 % 0 mm
19:58 2.6 °C -11.7 °C 1030.4 hPa SW 4.3 km/h -1607.7 km/h 34 % 0 mm
20:13 2 °C -12.6 °C 1030.4 hPa SSW 2.7 km/h -1607.7 km/h 33 % 0 mm
20:28 1.5 °C -13.1 °C 1030.4 hPa Calm   -1607.7 km/h 33 % 0 mm
21:14 1.1 °C -14.2 °C 1030.7 hPa Calm   -1607.7 km/h 31 % 0 mm
21:29 1.2 °C -14.1 °C 1030.7 hPa South 3.5 km/h -1607.7 km/h 31 % 0 mm
21:59 1.5 °C -14.2 °C 1030.7 hPa Calm   -1607.7 km/h 30 % 0 mm
22:30 1.8 °C -14.4 °C 1030.7 hPa SSW 1.8 km/h -1607.7 km/h 29 % 0 mm
22:45 1.8 °C -14 °C 1030.7 hPa South 1.8 km/h -1607.7 km/h 30 % 0 mm
23:00 1.9 °C -13.9 °C 1030.7 hPa North 1.8 km/h -1607.7 km/h 30 % 0 mm
23:15 1.9 °C -13.5 °C 1030.7 hPa Calm   -1607.7 km/h 31 % 0 mm
23:31 2.1 °C -13.3 °C 1030.7 hPa West 6 km/h -1607.7 km/h 31 % 0 mm
23:46 2 °C -13.4 °C 1030.7 hPa SSE 4.3 km/h -1607.7 km/h 31 % 0 mm
Big Bear CA Weather
Compliments of Weather Underground - 1.25 mb